Time;durP1;ratioP1;P1;durP2;ratioP2;P2;SDS_P1;SDS_P2;PMS_P1;PMS_P2;Temp;Humidity;BMP_temperature;BMP_pressure;BME280_temperature;BME280_humidity;BME280_pressure;Samples;Min_cycle;Max_cycle;Signal;HPM_P1;HPM_P2
2022/10/03 00:00:16;;;;;;;6.78;3.10;;;13.70;99.90;;;;;;5093081;28;20227;-80
2022/10/03 00:03:18;;;;;;;12.15;4.20;;;13.70;99.90;;;;;;5089303;28;20597;-81
2022/10/03 00:06:09;;;;;;;10.98;3.22;;;13.70;99.90;;;;;;5067706;28;20269;-80
2022/10/03 00:09:00;;;;;;;11.80;3.97;;;13.70;99.90;;;;;;5083157;28;20224;-80
2022/10/03 00:11:39;;;;;;;8.88;3.85;;;13.70;99.90;;;;;;5086223;28;20619;-79
2022/10/03 00:14:16;;;;;;;7.85;2.78;;;13.70;99.90;;;;;;5080832;28;20303;-78
2022/10/03 00:16:50;;;;;;;11.25;3.30;;;13.70;99.90;;;;;;5080809;28;20220;-78
2022/10/03 00:19:31;;;;;;;12.10;5.10;;;13.70;99.90;;;;;;5081831;28;20246;-78
2022/10/03 00:22:12;;;;;;;10.43;2.97;;;13.70;99.90;;;;;;5079173;28;20238;-77
2022/10/03 00:24:57;;;;;;;7.13;3.70;;;13.80;99.90;;;;;;5079072;28;20220;-79
2022/10/03 00:27:32;;;;;;;11.95;3.08;;;13.80;99.90;;;;;;5082316;28;20220;-80
2022/10/03 00:30:09;;;;;;;11.23;2.70;;;13.80;99.90;;;;;;5075877;28;20565;-77
2022/10/03 00:32:47;;;;;;;10.23;2.65;;;13.80;99.90;;;;;;5077507;28;20236;-80
2022/10/03 00:35:24;;;;;;;8.73;2.97;;;13.80;99.90;;;;;;5077362;28;20219;-77
2022/10/03 00:38:03;;;;;;;11.43;3.72;;;13.80;99.90;;;;;;5076972;28;20223;-77
2022/10/03 00:41:00;;;;;;;8.95;3.90;;;13.80;99.90;;;;;;5078262;28;20687;-80
2022/10/03 00:43:56;;;;;;;7.22;3.67;;;13.80;99.90;;;;;;5062284;28;20219;-80
2022/10/03 00:46:59;;;;;;;10.52;3.47;;;13.80;99.90;;;;;;5077822;28;20220;-77
2022/10/03 00:50:07;;;;;;;12.43;2.60;;;13.80;99.90;;;;;;5050142;28;20618;-78
2022/10/03 00:52:56;;;;;;;9.03;3.50;;;13.80;99.90;;;;;;5076561;28;20736;-78
2022/10/03 00:55:34;;;;;;;9.95;3.90;;;13.80;99.90;;;;;;5077186;28;20494;-78
2022/10/03 00:58:19;;;;;;;16.37;7.60;;;13.80;99.90;;;;;;5076983;28;20235;-80
2022/10/03 01:00:52;;;;;;;10.68;4.78;;;13.80;99.90;;;;;;5076118;28;20860;-78
2022/10/03 01:03:30;;;;;;;15.60;7.47;;;13.80;99.90;;;;;;5075936;28;20334;-79
2022/10/03 01:06:25;;;;;;;10.25;3.58;;;13.80;99.90;;;;;;5075782;28;20223;-81
2022/10/03 01:09:22;;;;;;;8.43;3.55;;;13.70;99.90;;;;;;5075603;28;20285;-81
2022/10/03 01:12:07;;;;;;;8.10;2.80;;;13.70;99.90;;;;;;5073031;28;20228;-80
2022/10/03 01:15:00;;;;;;;8.40;3.80;;;13.70;99.90;;;;;;5075047;28;20626;-78
2022/10/03 01:17:37;;;;;;;12.18;3.60;;;13.70;99.90;;;;;;5076076;28;20235;-80
2022/10/03 01:20:22;;;;;;;10.23;3.00;;;13.70;99.90;;;;;;5076215;28;20254;-81
2022/10/03 01:23:36;;;;;;;13.98;3.28;;;13.70;99.90;;;;;;5075979;28;20224;-80
2022/10/03 01:26:19;;;;;;;7.70;3.75;;;13.80;99.90;;;;;;5056457;28;20224;-78
2022/10/03 01:31:49;;;;;;;7.57;3.30;;;13.80;99.90;;;;;;5071167;28;20700;-79
2022/10/03 01:34:23;;;;;;;9.68;3.13;;;13.80;99.90;;;;;;5076130;28;20227;-78
2022/10/03 01:37:04;;;;;;;19.15;4.05;;;13.80;99.90;;;;;;5074641;28;20219;-78
2022/10/03 01:39:39;;;;;;;10.55;3.38;;;13.80;99.90;;;;;;5075639;28;20669;-78
2022/10/03 01:42:12;;;;;;;13.88;6.53;;;13.80;99.90;;;;;;5075283;28;20251;-79
2022/10/03 01:44:55;;;;;;;11.90;6.25;;;13.80;99.90;;;;;;5073567;28;20228;-79
2022/10/03 01:47:31;;;;;;;7.13;2.67;;;13.80;99.90;;;;;;5075587;28;20285;-78
2022/10/03 01:50:05;;;;;;;8.13;3.10;;;13.80;99.90;;;;;;5074936;28;20211;-80
2022/10/03 01:52:39;;;;;;;12.27;4.47;;;13.80;99.90;;;;;;5077073;28;20231;-81
2022/10/03 01:55:21;;;;;;;8.85;4.70;;;13.80;99.90;;;;;;5075177;28;20215;-79
2022/10/03 01:58:00;;;;;;;7.55;3.15;;;13.80;99.90;;;;;;5075670;28;20220;-78
2022/10/03 02:00:34;;;;;;;4.78;2.85;;;13.90;99.90;;;;;;5076833;28;20243;-81
2022/10/03 02:03:11;;;;;;;9.63;2.95;;;13.90;99.90;;;;;;5074153;28;20665;-79
2022/10/03 02:05:48;;;;;;;15.13;4.40;;;13.90;99.90;;;;;;5075256;28;20237;-79
2022/10/03 02:08:27;;;;;;;11.82;4.40;;;13.90;99.90;;;;;;5074571;28;20676;-79
2022/10/03 02:11:00;;;;;;;6.65;2.33;;;13.90;99.90;;;;;;5074272;28;20223;-79
2022/10/03 02:13:38;;;;;;;8.40;2.08;;;13.90;99.90;;;;;;5074831;28;20223;-77
2022/10/03 02:16:11;;;;;;;10.30;3.20;;;13.90;99.90;;;;;;5074178;28;20228;-79
2022/10/03 02:18:45;;;;;;;4.80;2.42;;;13.90;99.90;;;;;;5074817;28;20225;-77
2022/10/03 02:21:17;;;;;;;9.25;2.30;;;13.90;99.90;;;;;;5073964;28;20232;-77
2022/10/03 02:23:45;;;;;;;11.45;4.00;;;13.90;99.90;;;;;;5074749;28;20216;-77
2022/10/03 02:26:47;;;;;;;6.50;3.70;;;14.00;99.90;;;;;;5083266;28;20235;-81
2022/10/03 02:29:34;;;;;;;8.98;2.90;;;14.00;99.90;;;;;;5086233;28;20223;-79
2022/10/03 02:32:30;;;;;;;10.55;3.60;;;14.00;99.90;;;;;;5087130;28;20317;-78
2022/10/03 02:35:25;;;;;;;8.07;3.13;;;14.00;99.90;;;;;;5054719;28;20224;-77
2022/10/03 02:38:26;;;;;;;11.55;4.32;;;14.00;99.90;;;;;;5075639;28;20287;-77
2022/10/03 02:41:17;;;;;;;10.20;5.82;;;14.00;99.90;;;;;;5076559;28;20294;-79
2022/10/03 02:44:13;;;;;;;6.38;4.20;;;14.00;99.90;;;;;;5077110;28;20220;-77
2022/10/03 02:47:16;;;;;;;11.20;5.75;;;14.10;99.90;;;;;;5077142;28;20302;-78
2022/10/03 02:50:02;;;;;;;9.77;4.95;;;14.10;99.90;;;;;;5076395;28;20277;-78
2022/10/03 02:52:53;;;;;;;12.90;5.50;;;14.10;99.90;;;;;;5077221;28;20220;-78
2022/10/03 02:55:53;;;;;;;12.65;3.85;;;14.20;99.90;;;;;;5079420;28;20266;-80
2022/10/03 02:58:42;;;;;;;12.95;3.55;;;14.20;99.90;;;;;;5064889;28;20238;-78
2022/10/03 03:01:49;;;;;;;11.80;5.70;;;14.20;99.90;;;;;;5074625;28;20216;-79
2022/10/03 03:04:51;;;;;;;7.22;5.07;;;14.20;99.90;;;;;;5011234;28;20252;-78
2022/10/03 03:07:39;;;;;;;8.18;3.35;;;14.30;99.90;;;;;;5078260;28;20245;-78
2022/10/03 03:10:26;;;;;;;13.77;8.13;;;14.30;99.90;;;;;;5074221;28;20599;-77
2022/10/03 03:13:19;;;;;;;9.85;3.28;;;14.40;99.90;;;;;;5077532;28;20462;-77
2022/10/03 03:16:32;;;;;;;18.63;6.45;;;14.40;99.90;;;;;;5079682;28;20224;-81
2022/10/03 03:19:15;;;;;;;5.32;2.40;;;14.40;99.90;;;;;;5037493;28;20333;-78
2022/10/03 03:21:53;;;;;;;11.35;5.20;;;14.40;99.90;;;;;;5078409;28;20258;-80
2022/10/03 03:24:41;;;;;;;7.15;3.63;;;14.40;99.90;;;;;;5081701;28;20211;-80
2022/10/03 03:27:29;;;;;;;10.20;3.72;;;14.40;99.90;;;;;;5080138;28;20281;-78
2022/10/03 03:30:06;;;;;;;12.13;4.25;;;14.40;99.90;;;;;;5080618;28;20228;-79
2022/10/03 03:32:46;;;;;;;8.43;2.88;;;14.40;99.90;;;;;;5080079;28;20307;-78
2022/10/03 03:35:30;;;;;;;8.27;2.75;;;14.40;99.90;;;;;;5078955;28;20246;-80
2022/10/03 03:38:08;;;;;;;6.90;3.10;;;14.40;99.90;;;;;;5080811;28;20224;-80
2022/10/03 03:40:45;;;;;;;11.13;5.45;;;14.50;99.90;;;;;;5082180;28;20562;-78
2022/10/03 03:43:47;;;;;;;12.35;5.85;;;14.40;99.90;;;;;;5080118;28;20224;-80
2022/10/03 03:46:26;;;;;;;6.95;3.10;;;14.40;99.90;;;;;;5081006;28;20216;-81
2022/10/03 03:49:07;;;;;;;11.13;5.03;;;14.40;99.90;;;;;;5079893;28;20235;-78
2022/10/03 03:51:43;;;;;;;8.20;3.10;;;14.40;99.90;;;;;;5076883;28;20250;-80
2022/10/03 03:54:53;;;;;;;8.35;4.40;;;14.30;99.90;;;;;;5080443;28;20224;-79
2022/10/03 03:57:41;;;;;;;9.00;3.63;;;14.30;99.90;;;;;;5062761;28;20254;-77
2022/10/03 04:00:15;;;;;;;12.65;6.25;;;14.30;99.90;;;;;;5079786;28;20255;-80
2022/10/03 04:03:12;;;;;;;11.27;4.32;;;14.20;99.90;;;;;;5079802;28;20248;-77
2022/10/03 04:05:56;;;;;;;6.28;3.60;;;14.20;99.90;;;;;;5079135;28;20220;-80
2022/10/03 04:08:58;;;;;;;8.52;3.63;;;14.20;99.90;;;;;;5079112;28;20219;-78
2022/10/03 04:11:36;;;;;;;8.02;3.90;;;14.20;99.90;;;;;;5078776;28;20678;-80
2022/10/03 04:14:30;;;;;;;7.25;2.90;;;14.20;99.90;;;;;;5079078;28;20234;-78
2022/10/03 04:20:13;;;;;;;5.95;3.53;;;14.20;99.90;;;;;;5077035;28;20226;-78
2022/10/03 04:23:07;;;;;;;11.55;4.72;;;14.20;99.90;;;;;;5077195;28;20624;-78
2022/10/03 04:26:05;;;;;;;6.57;3.95;;;14.20;99.90;;;;;;5056849;28;20292;-80
2022/10/03 04:28:59;;;;;;;7.45;3.53;;;14.20;99.90;;;;;;5057402;28;20233;-80
2022/10/03 04:31:48;;;;;;;10.55;3.38;;;14.20;99.90;;;;;;5056246;28;20232;-81
2022/10/03 04:34:29;;;;;;;12.10;5.78;;;14.20;99.90;;;;;;5056286;28;20225;-80
2022/10/03 04:37:15;;;;;;;27.13;13.88;;;14.20;99.90;;;;;;5059206;28;20611;-78
2022/10/03 04:39:49;;;;;;;14.40;7.70;;;14.20;99.90;;;;;;5057324;28;20295;-78
2022/10/03 04:42:27;;;;;;;9.48;4.35;;;14.20;99.90;;;;;;5056796;28;20542;-78
2022/10/03 04:45:41;;;;;;;11.60;3.55;;;14.20;99.90;;;;;;5056909;28;20282;-78
2022/10/03 04:48:16;;;;;;;12.70;3.88;;;14.10;99.90;;;;;;4958083;28;20608;-79
2022/10/03 04:50:56;;;;;;;9.00;2.85;;;14.10;99.90;;;;;;4961743;28;20311;-80
2022/10/03 04:53:39;;;;;;;10.18;4.05;;;14.10;99.90;;;;;;5028019;28;20217;-80
2022/10/03 04:56:29;;;;;;;18.48;8.88;;;14.10;99.90;;;;;;5058380;28;20232;-78
2022/10/03 04:59:10;;;;;;;5.90;3.10;;;14.10;99.90;;;;;;5059017;28;20701;-78
2022/10/03 05:01:47;;;;;;;16.17;4.47;;;14.10;99.90;;;;;;5058762;28;20596;-79
2022/10/03 05:04:26;;;;;;;9.38;4.40;;;14.10;99.90;;;;;;5060032;28;20254;-78
2022/10/03 05:07:05;;;;;;;7.70;2.60;;;14.10;99.90;;;;;;5061673;28;20278;-78
2022/10/03 05:09:40;;;;;;;8.63;3.40;;;14.10;99.90;;;;;;5058679;28;20228;-80
2022/10/03 05:12:14;;;;;;;10.52;4.20;;;14.10;99.90;;;;;;5058409;28;20311;-78
2022/10/03 05:15:06;;;;;;;6.80;3.27;;;14.10;99.90;;;;;;5058886;28;20229;-80
2022/10/03 05:17:44;;;;;;;6.35;3.20;;;14.10;99.90;;;;;;5060793;28;20467;-80
2022/10/03 05:20:37;;;;;;;7.18;3.60;;;14.10;99.90;;;;;;5058065;28;20267;-81
2022/10/03 05:23:19;;;;;;;4.38;3.08;;;14.10;99.90;;;;;;5059732;28;20244;-80
2022/10/03 05:25:54;;;;;;;10.18;2.85;;;14.10;99.90;;;;;;5061237;28;20694;-79
2022/10/03 05:28:35;;;;;;;10.38;5.15;;;14.20;99.90;;;;;;5062603;28;20216;-81
2022/10/03 05:31:12;;;;;;;14.70;6.80;;;14.20;99.90;;;;;;5063154;28;20229;-80
2022/10/03 05:33:46;;;;;;;9.52;4.75;;;14.10;99.90;;;;;;5067547;28;20224;-81
2022/10/03 05:36:28;;;;;;;9.65;3.10;;;14.10;99.90;;;;;;5067196;28;20244;-80
2022/10/03 05:39:25;;;;;;;5.28;2.95;;;14.10;99.90;;;;;;5066666;28;20220;-81
2022/10/03 05:41:55;;;;;;;8.17;3.50;;;14.20;99.90;;;;;;5064206;28;20244;-81
2022/10/03 05:44:33;;;;;;;5.95;3.10;;;14.20;99.90;;;;;;5060045;28;20490;-78
2022/10/03 05:47:43;;;;;;;15.63;3.88;;;14.20;99.90;;;;;;5060095;28;20224;-80
2022/10/03 05:50:27;;;;;;;10.68;5.93;;;14.20;99.90;;;;;;5059144;28;20228;-80
2022/10/03 05:53:09;;;;;;;14.80;2.95;;;14.10;99.90;;;;;;5052968;28;20239;-80
2022/10/03 05:55:47;;;;;;;10.15;4.03;;;14.20;99.90;;;;;;5058628;28;20229;-80
2022/10/03 05:58:33;;;;;;;5.65;1.80;;;14.20;99.90;;;;;;5060311;28;20236;-80
2022/10/03 06:01:19;;;;;;;13.48;3.58;;;14.20;99.90;;;;;;5058624;28;20252;-78
2022/10/03 06:03:59;;;;;;;7.93;4.88;;;14.20;99.90;;;;;;5058573;28;20311;-78
2022/10/03 06:06:42;;;;;;;6.83;4.07;;;14.20;99.90;;;;;;5056613;28;20229;-79
2022/10/03 06:09:44;;;;;;;12.73;5.20;;;14.20;99.90;;;;;;5055797;28;20965;-78
2022/10/03 06:12:14;;;;;;;8.00;4.20;;;14.20;99.90;;;;;;5056131;28;20531;-78
2022/10/03 06:15:09;;;;;;;10.13;3.38;;;14.20;99.90;;;;;;5054580;28;20235;-78
2022/10/03 06:18:01;;;;;;;6.07;2.95;;;14.20;99.90;;;;;;5054952;28;20241;-79
2022/10/03 06:21:04;;;;;;;11.03;3.67;;;14.30;99.90;;;;;;5056555;28;20287;-79
2022/10/03 06:23:57;;;;;;;4.28;1.85;;;14.20;99.90;;;;;;5054030;28;20532;-79
2022/10/03 06:26:45;;;;;;;15.18;7.70;;;14.20;99.90;;;;;;5053793;28;20551;-79
2022/10/03 06:29:56;;;;;;;11.10;4.00;;;14.20;99.90;;;;;;5054169;28;20244;-79
2022/10/03 06:32:49;;;;;;;8.00;3.83;;;14.20;99.90;;;;;;5053351;28;20228;-79
2022/10/03 06:35:41;;;;;;;10.43;4.90;;;14.20;99.90;;;;;;5053462;28;20224;-79
2022/10/03 06:39:03;;;;;;;16.33;4.15;;;14.20;99.90;;;;;;5054664;28;20251;-79
2022/10/03 06:42:11;;;;;;;11.75;4.25;;;14.20;99.90;;;;;;5037710;28;20220;-78
2022/10/03 06:44:54;;;;;;;9.25;3.30;;;14.20;99.90;;;;;;5054534;28;20220;-79
2022/10/03 06:47:53;;;;;;;7.63;3.55;;;14.20;99.90;;;;;;5054345;28;20228;-79
2022/10/03 06:50:51;;;;;;;8.80;3.30;;;14.30;99.90;;;;;;5055983;28;20221;-79
2022/10/03 06:53:47;;;;;;;14.80;4.97;;;14.30;99.90;;;;;;5057812;28;20225;-79
2022/10/03 06:56:54;;;;;;;5.77;3.00;;;14.30;99.90;;;;;;5061671;28;20463;-79
2022/10/03 07:00:00;;;;;;;7.20;2.85;;;14.40;99.90;;;;;;5062133;28;20456;-80
2022/10/03 07:02:52;;;;;;;13.10;3.40;;;14.40;99.90;;;;;;5056164;28;20221;-79
2022/10/03 07:06:06;;;;;;;7.07;2.77;;;14.40;99.90;;;;;;5053888;28;20228;-79
2022/10/03 07:12:57;;;;;;;7.40;3.23;;;14.50;99.90;;;;;;5044949;28;20228;-79
2022/10/03 07:16:26;;;;;;;7.43;3.65;;;14.60;99.90;;;;;;5043140;28;20482;-78
2022/10/03 07:19:18;;;;;;;5.13;2.70;;;14.60;99.90;;;;;;5025407;28;20230;-78
2022/10/03 07:22:21;;;;;;;7.47;3.27;;;14.60;99.90;;;;;;5051797;28;20212;-79
2022/10/03 07:25:25;;;;;;;16.33;3.70;;;14.70;99.90;;;;;;5056455;28;20463;-77
2022/10/03 07:28:37;;;;;;;9.93;2.97;;;14.70;99.90;;;;;;5040798;28;20282;-79
2022/10/03 07:31:13;;;;;;;10.25;3.00;;;14.80;99.90;;;;;;5003115;28;20477;-78
2022/10/03 07:34:11;;;;;;;13.47;4.83;;;14.80;99.90;;;;;;4997977;28;20230;-80
2022/10/03 07:40:15;;;;;;;10.73;2.90;;;14.90;99.90;;;;;;5059456;28;20647;-79
2022/10/03 07:43:14;;;;;;;11.47;3.27;;;14.90;99.90;;;;;;5042684;28;20467;-80
2022/10/03 07:46:11;;;;;;;11.37;4.20;;;14.90;99.90;;;;;;5029597;28;20471;-79
2022/10/03 07:49:20;;;;;;;9.60;4.47;;;15.00;99.90;;;;;;5054847;28;20969;-78
2022/10/03 07:52:07;;;;;;;8.93;2.77;;;15.10;99.90;;;;;;4993183;28;20251;-77
2022/10/03 07:54:56;;;;;;;19.80;3.83;;;15.10;99.90;;;;;;5051564;28;20817;-77
2022/10/03 07:57:58;;;;;;;11.77;3.33;;;15.10;99.90;;;;;;5054071;28;20553;-77
2022/10/03 08:00:33;;;;;;;11.60;4.23;;;15.10;99.90;;;;;;5056610;28;20490;-78
2022/10/03 08:03:47;;;;;;;10.97;4.20;;;15.10;99.90;;;;;;5059155;28;20478;-77
2022/10/03 08:06:19;;;;;;;9.73;3.30;;;15.10;99.90;;;;;;5059111;28;20960;-78
2022/10/03 08:09:07;;;;;;;9.97;3.10;;;15.10;99.90;;;;;;5065873;28;20481;-78
2022/10/03 08:12:16;;;;;;;8.47;4.10;;;15.10;99.90;;;;;;5057098;28;20475;-79
2022/10/03 08:14:56;;;;;;;6.97;3.03;;;15.10;99.90;;;;;;5059694;28;20490;-78
2022/10/03 08:17:56;;;;;;;7.43;3.50;;;15.10;99.90;;;;;;5058939;28;20462;-81
2022/10/03 08:20:48;;;;;;;10.33;3.40;;;15.20;99.90;;;;;;5063687;28;20864;-81
2022/10/03 08:23:49;;;;;;;10.33;2.50;;;15.20;99.90;;;;;;5064925;28;20471;-80
2022/10/03 08:26:21;;;;;;;8.50;3.93;;;15.20;99.90;;;;;;5060353;28;20472;-80
2022/10/03 08:29:22;;;;;;;8.70;4.73;;;15.20;99.90;;;;;;5056996;28;20517;-80
2022/10/03 08:32:39;;;;;;;5.40;3.77;;;15.20;99.90;;;;;;5064946;28;20522;-77
2022/10/03 08:35:28;;;;;;;12.00;4.23;;;15.20;99.90;;;;;;5062187;28;20471;-80
2022/10/03 08:38:32;;;;;;;11.27;3.50;;;15.30;99.90;;;;;;5050751;28;20532;-81
2022/10/03 08:41:34;;;;;;;7.37;2.83;;;15.30;99.90;;;;;;5054748;28;20467;-78
2022/10/03 08:44:40;;;;;;;8.00;3.70;;;15.30;99.90;;;;;;5055191;28;20550;-78
2022/10/03 08:47:39;;;;;;;18.53;4.03;;;15.40;99.90;;;;;;5053612;28;20535;-78
2022/10/03 08:50:40;;;;;;;9.13;2.23;;;15.40;99.90;;;;;;5050394;28;20561;-79
2022/10/03 08:53:59;;;;;;;6.57;2.90;;;15.40;99.90;;;;;;5057422;28;20467;-81
2022/10/03 08:56:47;;;;;;;14.10;3.47;;;15.50;99.90;;;;;;5058515;28;20467;-80
2022/10/03 09:00:05;;;;;;;6.40;2.33;;;15.60;99.90;;;;;;5062129;28;20467;-79
2022/10/03 09:03:27;;;;;;;14.43;6.50;;;15.60;99.90;;;;;;5011469;28;20831;-79
2022/10/03 09:06:32;;;;;;;15.33;3.83;;;15.70;99.90;;;;;;5063024;28;20455;-80
2022/10/03 09:09:42;;;;;;;7.50;3.30;;;15.60;99.90;;;;;;5060616;28;20463;-78
2022/10/03 09:12:48;;;;;;;8.40;2.77;;;15.70;99.90;;;;;;5058472;28;20494;-78
2022/10/03 09:16:00;;;;;;;7.83;2.80;;;15.70;99.90;;;;;;5059203;28;20470;-80
2022/10/03 09:18:55;;;;;;;6.60;2.70;;;15.80;99.90;;;;;;5025275;28;20471;-78
2022/10/03 09:22:06;;;;;;;7.13;2.57;;;15.90;99.90;;;;;;5040346;28;20521;-77
2022/10/03 09:25:08;;;;;;;18.27;6.30;;;15.90;99.90;;;;;;5016076;28;20463;-77
2022/10/03 09:28:07;;;;;;;7.20;3.53;;;15.90;99.90;;;;;;5061245;28;20455;-78
2022/10/03 09:30:48;;;;;;;9.20;3.60;;;15.90;99.90;;;;;;5032848;28;20447;-78
2022/10/03 09:33:49;;;;;;;10.93;3.60;;;16.00;99.90;;;;;;5056473;28;20467;-80
2022/10/03 09:36:51;;;;;;;9.93;4.97;;;16.00;99.90;;;;;;5042245;28;20474;-77
2022/10/03 09:39:55;;;;;;;9.33;3.30;;;16.10;99.90;;;;;;5055956;28;20476;-77
2022/10/03 09:43:04;;;;;;;10.30;3.27;;;16.20;99.90;;;;;;5055185;28;20459;-77
2022/10/03 09:46:06;;;;;;;4.73;3.20;;;16.20;99.90;;;;;;5056608;28;20464;-77
2022/10/03 09:49:05;;;;;;;6.90;3.60;;;16.30;99.90;;;;;;5046250;28;20542;-79
2022/10/03 09:51:41;;;;;;;10.53;3.07;;;16.30;99.90;;;;;;5059934;28;20506;-81
2022/10/03 09:55:00;;;;;;;9.50;3.60;;;16.30;99.90;;;;;;5058485;28;20513;-81
2022/10/03 09:58:20;;;;;;;8.90;4.80;;;16.40;99.90;;;;;;5057570;28;20470;-80
2022/10/03 10:01:07;;;;;;;6.33;3.77;;;16.50;99.90;;;;;;5023079;28;20510;-78
2022/10/03 10:04:10;;;;;;;6.03;2.80;;;16.50;99.90;;;;;;5055276;28;20476;-78
2022/10/03 10:07:04;;;;;;;7.90;2.77;;;16.50;99.90;;;;;;5056716;28;20803;-78
2022/10/03 10:09:53;;;;;;;5.30;3.10;;;16.50;99.90;;;;;;5055753;28;20478;-80
2022/10/03 10:12:48;;;;;;;8.90;3.20;;;16.50;99.90;;;;;;5058523;28;20501;-79
2022/10/03 10:15:51;;;;;;;10.37;3.53;;;16.50;99.90;;;;;;5058236;28;20457;-80
2022/10/03 10:18:41;;;;;;;8.63;3.60;;;16.50;99.90;;;;;;5064069;28;20497;-80
2022/10/03 10:21:39;;;;;;;5.93;4.37;;;16.60;99.90;;;;;;5060521;28;20478;-77
2022/10/03 10:24:37;;;;;;;9.20;4.10;;;16.60;99.90;;;;;;5060404;28;20463;-80
2022/10/03 10:27:24;;;;;;;10.57;3.90;;;16.60;99.90;;;;;;5045585;28;20476;-80
2022/10/03 10:30:13;;;;;;;16.60;3.30;;;16.60;99.90;;;;;;5057889;28;20494;-80
2022/10/03 10:33:29;;;;;;;6.53;2.50;;;16.70;99.90;;;;;;5058604;28;20483;-79
2022/10/03 10:36:49;;;;;;;8.13;3.57;;;16.80;99.90;;;;;;5059811;28;20800;-78
2022/10/03 10:39:46;;;;;;;11.40;3.23;;;16.80;99.90;;;;;;5061722;28;20489;-77
2022/10/03 10:43:02;;;;;;;8.20;2.93;;;16.90;99.90;;;;;;5060971;28;20482;-79
2022/10/03 10:45:47;;;;;;;8.97;3.40;;;16.90;99.90;;;;;;5028349;28;20844;-77
2022/10/03 10:48:52;;;;;;;8.30;3.20;;;17.00;99.90;;;;;;5055793;28;20963;-77
2022/10/03 10:51:52;;;;;;;7.97;5.33;;;17.00;99.90;;;;;;5056281;28;20471;-78
2022/10/03 10:55:04;;;;;;;6.20;2.90;;;17.00;99.90;;;;;;5056330;28;20472;-80
2022/10/03 10:58:32;;;;;;;5.20;2.10;;;17.00;99.90;;;;;;5048824;28;20532;-79
2022/10/03 11:01:28;;;;;;;5.67;2.30;;;17.00;99.90;;;;;;5055830;28;20459;-78
2022/10/03 11:04:37;;;;;;;11.00;3.70;;;17.10;99.90;;;;;;5055752;28;20526;-78
2022/10/03 11:10:42;;;;;;;7.70;4.07;;;17.10;99.90;;;;;;5129683;27;20557;-81
2022/10/03 11:13:56;;;;;;;5.60;2.73;;;17.10;99.90;;;;;;5099460;28;20534;-78
2022/10/03 11:16:56;;;;;;;4.20;2.47;;;17.20;99.90;;;;;;5116245;28;20849;-80
2022/10/03 11:20:05;;;;;;;9.43;2.57;;;17.20;99.90;;;;;;5100463;28;20456;-79
2022/10/03 11:23:15;;;;;;;6.07;2.33;;;17.30;99.90;;;;;;5114253;28;20517;-78
2022/10/03 11:26:19;;;;;;;12.30;3.20;;;17.30;99.90;;;;;;5029651;28;20461;-79
2022/10/03 11:29:20;;;;;;;7.00;2.43;;;17.30;99.90;;;;;;5104487;28;20522;-78
2022/10/03 11:32:19;;;;;;;9.03;4.07;;;17.30;99.90;;;;;;5107242;28;20467;-77
2022/10/03 11:35:26;;;;;;;10.40;3.80;;;17.30;99.90;;;;;;5106487;28;20467;-80
2022/10/03 11:37:59;;;;;;;5.93;2.73;;;17.30;99.90;;;;;;5077103;28;20445;-78
2022/10/03 11:40:35;;;;;;;8.20;2.83;;;17.30;99.90;;;;;;5102157;28;20521;-77
2022/10/03 11:43:34;;;;;;;5.50;3.10;;;17.30;99.90;;;;;;5103718;28;20454;-80
2022/10/03 11:46:20;;;;;;;5.87;3.87;;;17.30;99.90;;;;;;5098473;28;20531;-79
2022/10/03 11:51:41;;;;;;;6.60;3.30;;;17.30;99.90;;;;;;5093301;28;20520;-80
2022/10/03 11:54:20;;;;;;;8.50;2.83;;;17.40;99.90;;;;;;5092005;28;20463;-78
2022/10/03 11:56:51;;;;;;;9.57;4.33;;;17.40;99.90;;;;;;5094566;28;20461;-79
2022/10/03 11:59:47;;;;;;;6.03;5.07;;;17.30;99.90;;;;;;5091095;28;20462;-78
2022/10/03 12:02:21;;;;;;;7.47;4.13;;;17.30;99.90;;;;;;5094900;28;20511;-80
2022/10/03 12:04:57;;;;;;;6.37;2.97;;;17.30;99.90;;;;;;5093847;28;20855;-80
2022/10/03 12:10:43;;;;;;;5.60;2.40;;;17.30;99.90;;;;;;5113590;28;20470;-80
2022/10/03 12:13:15;;;;;;;9.97;2.97;;;17.30;99.90;;;;;;5120153;28;20475;-79
2022/10/03 12:15:48;;;;;;;5.90;2.53;;;17.30;99.90;;;;;;5105438;28;20540;-79
2022/10/03 12:18:26;;;;;;;6.97;3.50;;;17.30;99.90;;;;;;5106808;28;20527;-79
2022/10/03 12:21:07;;;;;;;6.83;2.80;;;17.30;99.90;;;;;;5101460;28;20469;-78
2022/10/03 12:23:56;;;;;;;5.40;2.13;;;17.20;99.90;;;;;;5101130;28;20486;-78
2022/10/03 12:26:33;;;;;;;9.43;2.70;;;17.20;99.90;;;;;;5100129;28;20468;-79
2022/10/03 12:29:03;;;;;;;8.93;3.80;;;17.20;99.90;;;;;;5099735;28;21019;-78
2022/10/03 12:31:35;;;;;;;7.47;3.37;;;17.10;99.90;;;;;;5092222;28;20982;-78
2022/10/03 12:34:21;;;;;;;4.93;2.53;;;17.10;99.90;;;;;;5100085;28;20474;-80
2022/10/03 12:36:55;;;;;;;4.97;3.60;;;17.10;99.90;;;;;;5099833;28;20463;-80
2022/10/03 12:39:35;;;;;;;7.53;2.93;;;17.10;99.90;;;;;;5099395;28;20450;-80
2022/10/03 12:42:23;;;;;;;6.83;2.50;;;17.20;99.90;;;;;;5098082;28;21006;-79
2022/10/03 12:44:58;;;;;;;6.23;3.13;;;17.20;99.90;;;;;;5096495;28;20484;-79
2022/10/03 12:47:32;;;;;;;5.80;3.30;;;17.30;99.90;;;;;;5085883;28;20485;-79
2022/10/03 12:50:09;;;;;;;6.73;2.80;;;17.30;99.90;;;;;;5100312;28;20533;-78
2022/10/03 12:52:43;;;;;;;7.03;2.73;;;17.40;99.90;;;;;;5099935;28;20445;-79
2022/10/03 12:55:25;;;;;;;7.80;3.20;;;17.40;99.90;;;;;;5098968;28;20469;-80
2022/10/03 12:58:00;;;;;;;10.77;3.50;;;17.50;99.90;;;;;;5099956;28;20464;-80
2022/10/03 13:00:32;;;;;;;5.63;2.40;;;17.50;99.90;;;;;;5097173;28;20456;-78
2022/10/03 13:03:32;;;;;;;5.00;2.40;;;17.50;99.90;;;;;;5098517;28;20991;-80
2022/10/03 13:06:33;;;;;;;7.53;3.43;;;17.60;99.90;;;;;;5096962;28;21018;-80
2022/10/03 13:09:16;;;;;;;6.43;3.17;;;17.60;99.90;;;;;;5108357;28;20500;-79
2022/10/03 13:11:55;;;;;;;7.57;3.17;;;17.60;99.90;;;;;;5117072;28;20489;-80
2022/10/03 13:14:33;;;;;;;4.33;2.80;;;17.60;99.90;;;;;;5117682;28;20957;-79
2022/10/03 13:17:11;;;;;;;5.50;2.67;;;17.60;99.90;;;;;;5108000;28;20862;-78
2022/10/03 13:19:48;;;;;;;6.73;2.70;;;17.60;99.90;;;;;;5119373;28;20992;-80
2022/10/03 13:22:29;;;;;;;5.50;2.60;;;17.60;99.90;;;;;;5120712;28;20527;-79
2022/10/03 13:25:04;;;;;;;7.17;3.57;;;17.60;99.90;;;;;;5118497;28;20471;-78
2022/10/03 13:27:42;;;;;;;8.83;4.90;;;17.70;99.90;;;;;;5119793;28;20511;-81
2022/10/03 13:30:22;;;;;;;13.23;7.00;;;17.70;99.90;;;;;;5122000;28;20542;-80
2022/10/03 13:32:57;;;;;;;7.00;4.50;;;17.80;99.90;;;;;;5116221;28;20820;-80
2022/10/03 13:38:54;;;;;;;7.53;3.70;;;17.80;99.90;;;;;;5128006;27;20466;-79
2022/10/03 13:41:29;;;;;;;4.00;2.30;;;17.80;99.90;;;;;;5096125;28;20470;-80
2022/10/03 13:44:00;;;;;;;3.20;1.97;;;17.90;99.90;;;;;;5123084;27;20483;-81
2022/10/03 13:46:33;;;;;;;9.20;3.40;;;17.80;99.90;;;;;;5111995;27;20443;-81
2022/10/03 13:49:09;;;;;;;5.20;2.20;;;17.80;99.90;;;;;;5115276;28;20539;-81
2022/10/03 13:51:46;;;;;;;4.50;2.60;;;17.80;99.90;;;;;;5115018;28;20770;-81
2022/10/03 13:54:22;;;;;;;8.60;3.90;;;17.80;99.90;;;;;;5115124;28;20574;-81
2022/10/03 13:57:10;;;;;;;4.30;1.90;;;17.80;99.90;;;;;;5118110;28;20535;-81
2022/10/03 13:59:49;;;;;;;14.87;3.97;;;17.70;99.90;;;;;;5118112;28;20477;-81
2022/10/03 14:02:40;;;;;;;5.10;2.40;;;17.70;99.90;;;;;;5117567;28;20480;-80
2022/10/03 14:05:51;;;;;;;6.50;2.50;;;17.60;99.90;;;;;;5116854;28;20463;-80
2022/10/03 14:08:35;;;;;;;9.47;2.40;;;17.60;99.90;;;;;;5120195;28;20463;-80
2022/10/03 14:11:27;;;;;;;5.77;2.97;;;17.60;99.90;;;;;;5123152;28;20948;-78
2022/10/03 14:14:12;;;;;;;13.87;5.90;;;17.60;99.90;;;;;;5115569;28;20493;-78
2022/10/03 14:16:50;;;;;;;6.83;4.10;;;17.60;99.90;;;;;;5093312;28;20476;-79
2022/10/03 14:19:34;;;;;;;6.90;3.90;;;17.60;99.90;;;;;;5093896;28;20559;-79
2022/10/03 14:22:13;;;;;;;6.13;3.80;;;17.60;99.90;;;;;;5093720;28;20482;-80
2022/10/03 14:24:57;;;;;;;3.87;2.40;;;17.50;99.90;;;;;;5096219;28;20963;-80
2022/10/03 14:27:45;;;;;;;8.60;3.00;;;17.50;99.90;;;;;;5094385;28;20528;-79
2022/10/03 14:30:19;;;;;;;4.03;2.77;;;17.50;99.90;;;;;;5094858;28;20466;-80
2022/10/03 14:33:20;;;;;;;8.73;4.07;;;17.50;99.90;;;;;;5094027;28;20529;-80
2022/10/03 14:36:04;;;;;;;11.77;6.93;;;17.50;99.90;;;;;;5093672;28;20878;-81
2022/10/03 14:39:01;;;;;;;12.07;5.10;;;17.50;99.90;;;;;;5095468;28;20523;-81
2022/10/03 14:41:57;;;;;;;7.60;3.87;;;17.50;99.90;;;;;;5093694;28;20519;-81
2022/10/03 14:44:36;;;;;;;6.53;3.93;;;17.50;99.90;;;;;;5093753;28;20458;-80
2022/10/03 14:47:12;;;;;;;13.00;5.10;;;17.50;99.90;;;;;;5095102;28;20538;-80
2022/10/03 14:49:51;;;;;;;5.67;3.57;;;17.50;99.90;;;;;;5094593;28;20464;-79
2022/10/03 14:52:28;;;;;;;7.10;4.37;;;17.50;99.90;;;;;;5094014;28;20971;-81
2022/10/03 14:54:59;;;;;;;7.33;4.27;;;17.50;99.90;;;;;;5094151;28;20923;-81
2022/10/03 14:57:37;;;;;;;5.43;3.30;;;17.50;99.90;;;;;;5097895;28;20473;-80
2022/10/03 15:00:08;;;;;;;6.13;3.90;;;17.60;99.90;;;;;;5096673;28;20456;-81